Time;durP1;ratioP1;P1;durP2;ratioP2;P2;SDS_P1;SDS_P2;PMS_P1;PMS_P2;Temp;Humidity;BMP_temperature;BMP_pressure;BME280_temperature;BME280_humidity;BME280_pressure;Samples;Min_cycle;Max_cycle;Signal;HPM_P1;HPM_P2
2023/03/15 00:01:59;;;;;;;6.85;1.90;;;;;;;0.97;99.67;97873.81;4156775;28;20157;-75
2023/03/15 00:03:59;;;;;;;3.38;1.50;;;;;;;0.92;100.00;97881.41;4157094;28;20136;-75
2023/03/15 00:06:00;;;;;;;3.83;1.85;;;;;;;0.92;100.00;97890.38;4157670;28;20442;-75
2023/03/15 00:08:00;;;;;;;5.63;1.50;;;;;;;0.94;99.55;97890.03;4157698;28;20044;-75
2023/03/15 00:10:01;;;;;;;6.60;1.73;;;;;;;1.01;98.62;97893.84;4157577;28;20394;-75
2023/03/15 00:12:01;;;;;;;7.35;1.55;;;;;;;0.95;99.77;97899.78;4157602;28;20112;-75
2023/03/15 00:14:02;;;;;;;5.30;2.58;;;;;;;0.89;99.20;97895.66;4157294;28;20452;-75
2023/03/15 00:16:02;;;;;;;4.93;1.77;;;;;;;0.91;97.90;97904.28;4157166;28;20389;-75
2023/03/15 00:18:03;;;;;;;8.40;2.20;;;;;;;0.88;98.00;97902.22;4157662;28;20029;-75
2023/03/15 00:20:04;;;;;;;6.68;2.05;;;;;;;0.90;98.36;97892.59;4157644;28;20026;-75
2023/03/15 00:22:04;;;;;;;3.60;1.52;;;;;;;0.91;96.77;97894.22;4157942;28;20031;-75
2023/03/15 00:24:05;;;;;;;5.30;1.27;;;;;;;0.92;96.49;97906.72;4158275;28;20040;-75
2023/03/15 00:26:06;;;;;;;4.10;1.48;;;;;;;0.90;97.60;97910.88;4161029;28;20041;-75
2023/03/15 00:28:06;;;;;;;2.15;1.50;;;;;;;0.90;96.08;97913.59;4160991;28;20398;-75
2023/03/15 00:30:07;;;;;;;6.70;1.60;;;;;;;0.86;97.49;97909.94;4160676;28;20028;-75
2023/03/15 00:32:08;;;;;;;5.15;1.67;;;;;;;0.81;96.44;97910.91;4161078;28;20487;-75
2023/03/15 00:34:08;;;;;;;4.68;1.60;;;;;;;0.75;97.10;97918.47;4159981;28;20049;-75
2023/03/15 00:36:10;;;;;;;3.25;1.55;;;;;;;0.79;98.48;97918.63;4161433;28;20366;-75
2023/03/15 00:38:12;;;;;;;3.83;1.38;;;;;;;0.74;98.63;97926.94;4160565;28;20030;-75
2023/03/15 00:40:12;;;;;;;3.60;1.70;;;;;;;0.70;98.34;97939.63;4160506;28;20725;-75
2023/03/15 00:42:14;;;;;;;6.43;1.75;;;;;;;0.63;100.00;97931.97;4161018;28;20244;-75
2023/03/15 00:44:14;;;;;;;6.00;2.08;;;;;;;0.55;100.00;97936.31;4159547;28;20376;-75
2023/03/15 00:46:16;;;;;;;3.88;1.63;;;;;;;0.52;100.00;97936.19;4160635;28;20033;-75
2023/03/15 00:48:17;;;;;;;5.63;1.35;;;;;;;0.46;100.00;97943.72;4160572;28;20059;-75
2023/03/15 00:50:18;;;;;;;3.08;1.42;;;;;;;0.47;100.00;97931.69;4160874;28;20128;-75
2023/03/15 00:52:18;;;;;;;3.97;1.70;;;;;;;0.47;100.00;97942.59;4160859;28;20358;-75
2023/03/15 00:54:18;;;;;;;5.60;2.13;;;;;;;0.45;100.00;97944.03;4159752;28;20183;-75
2023/03/15 00:56:22;;;;;;;6.30;1.80;;;;;;;0.42;100.00;97945.50;4160749;28;20026;-75
2023/03/15 00:58:23;;;;;;;4.38;1.95;;;;;;;0.40;100.00;97950.44;4191713;28;20055;-75
2023/03/15 01:00:23;;;;;;;4.63;1.95;;;;;;;0.38;100.00;97943.75;4160768;28;20061;-75
2023/03/15 01:02:24;;;;;;;9.43;2.40;;;;;;;0.38;100.00;97941.81;4160124;28;20049;-75
2023/03/15 01:04:24;;;;;;;6.75;1.75;;;;;;;0.37;100.00;97942.16;4160548;28;20057;-75
2023/03/15 01:06:27;;;;;;;6.65;1.83;;;;;;;0.40;100.00;97947.72;4160537;28;20037;-75
2023/03/15 01:08:28;;;;;;;5.72;2.08;;;;;;;0.44;100.00;97950.63;4160248;28;20395;-75
2023/03/15 01:10:28;;;;;;;6.00;1.65;;;;;;;0.42;100.00;97942.78;4160295;28;20043;-75
2023/03/15 01:12:31;;;;;;;5.55;1.77;;;;;;;0.42;100.00;97939.25;4159610;28;20322;-75
2023/03/15 01:14:34;;;;;;;7.85;1.77;;;;;;;0.42;100.00;97950.16;4160688;28;20045;-75
2023/03/15 01:16:34;;;;;;;;;;;;;;;0.40;100.00;97946.94;4160246;28;20053;-75
2023/03/15 01:18:36;;;;;;;4.55;1.58;;;;;;;0.39;100.00;97954.28;4160102;28;19917;-75
2023/03/15 01:20:36;;;;;;;6.32;1.83;;;;;;;0.35;100.00;97945.19;4160443;28;20045;-75
2023/03/15 01:22:37;;;;;;;3.85;1.30;;;;;;;0.32;100.00;97953.19;4159497;28;20393;-75
2023/03/15 01:24:37;;;;;;;3.55;1.58;;;;;;;0.26;100.00;97958.81;4159931;28;20050;-75
2023/03/15 01:26:38;;;;;;;4.97;1.30;;;;;;;0.27;100.00;97960.41;4160327;28;20481;-75
2023/03/15 01:28:38;;;;;;;7.63;1.92;;;;;;;0.26;100.00;97961.53;4160137;28;20034;-75
2023/03/15 01:30:39;;;;;;;2.67;1.88;;;;;;;0.26;100.00;97960.75;4160060;28;20057;-75
2023/03/15 01:32:39;;;;;;;4.72;1.30;;;;;;;0.30;100.00;97964.41;4159325;28;20071;-75
2023/03/15 01:34:40;;;;;;;3.97;1.48;;;;;;;0.31;100.00;97966.00;4159820;28;20042;-75
2023/03/15 01:36:40;;;;;;;5.88;1.33;;;;;;;0.32;100.00;97967.59;4159964;28;20034;-75
2023/03/15 01:38:41;;;;;;;3.53;1.33;;;;;;;0.32;100.00;97962.16;4159858;28;20033;-75
2023/03/15 01:40:43;;;;;;;5.03;1.17;;;;;;;0.29;100.00;97965.53;4159905;28;20041;-74
2023/03/15 01:43:18;;;;;;;2.83;1.23;;;;;;;0.29;100.00;97973.69;4159226;28;20470;-75
2023/03/15 01:45:55;;;;;;;4.68;1.50;;;;;;;0.27;100.00;97982.19;4189676;28;20481;-75
2023/03/15 01:47:56;;;;;;;5.65;1.55;;;;;;;0.16;100.00;97980.91;4159841;28;20187;-75
2023/03/15 01:50:04;;;;;;;6.15;1.52;;;;;;;0.09;100.00;97974.38;4159937;28;20065;-75
2023/03/15 01:52:23;;;;;;;5.32;1.58;;;;;;;0.07;100.00;97977.41;4159282;28;20042;-75
2023/03/15 01:54:29;;;;;;;9.45;2.00;;;;;;;0.06;100.00;97975.00;4158871;28;20477;-75
2023/03/15 01:56:32;;;;;;;4.35;1.60;;;;;;;0.03;100.00;97979.16;4158629;28;20055;-75
2023/03/15 01:58:35;;;;;;;4.03;1.30;;;;;;;0.02;100.00;97987.66;4159621;28;20072;-75
2023/03/15 02:00:36;;;;;;;5.10;1.55;;;;;;;-0.03;100.00;97983.97;4159621;28;20576;-75
2023/03/15 02:02:48;;;;;;;4.28;1.30;;;;;;;0.02;100.00;97980.28;4159090;28;20072;-75
2023/03/15 02:05:08;;;;;;;5.35;1.67;;;;;;;-0.01;100.00;97987.16;4159446;28;20056;-75
2023/03/15 02:07:09;;;;;;;4.28;1.42;;;;;;;-0.04;100.00;97987.00;4159133;28;20041;-75
2023/03/15 02:09:13;;;;;;;7.32;1.33;;;;;;;-0.03;100.00;97989.41;4159773;28;20119;-75
2023/03/15 02:11:16;;;;;;;6.53;1.63;;;;;;;-0.01;100.00;97979.00;4159383;28;20065;-75
2023/03/15 02:13:18;;;;;;;;;;;;;;;0.02;100.00;97988.47;4158924;28;20104;-75
2023/03/15 02:15:18;;;;;;;4.30;1.30;;;;;;;0.04;100.00;97993.56;4159242;28;19928;-75
2023/03/15 02:17:24;;;;;;;5.38;1.17;;;;;;;0.01;100.00;97983.34;4160069;28;20849;-75
2023/03/15 02:20:10;;;;;;;1.48;1.13;;;;;;;-0.02;100.00;97991.00;4159699;28;20049;-75
2023/03/15 02:22:37;;;;;;;3.42;1.20;;;;;;;-0.08;100.00;97994.22;4141633;28;20050;-75
2023/03/15 02:24:47;;;;;;;6.28;1.27;;;;;;;-0.15;100.00;97988.47;4142823;28;20141;-75
2023/03/15 02:26:53;;;;;;;4.88;1.65;;;;;;;-0.15;100.00;97988.47;4143797;28;20497;-75
2023/03/15 02:28:54;;;;;;;5.53;1.38;;;;;;;-0.18;100.00;97989.06;4149731;28;20041;-75
2023/03/15 02:30:55;;;;;;;5.80;1.45;;;;;;;-0.25;100.00;97991.47;4157910;28;20374;-75
2023/03/15 02:32:58;;;;;;;4.03;1.20;;;;;;;-0.32;100.00;97998.19;4158389;28;20417;-75
2023/03/15 02:34:58;;;;;;;10.20;2.15;;;;;;;-0.32;100.00;97995.47;4159026;28;20382;-75
2023/03/15 02:36:59;;;;;;;3.20;1.15;;;;;;;-0.35;100.00;97996.09;4159641;28;20045;-75
2023/03/15 02:39:00;;;;;;;3.90;1.02;;;;;;;-0.34;100.00;97994.97;4158981;28;20211;-75
2023/03/15 02:41:00;;;;;;;5.90;1.63;;;;;;;-0.38;100.00;97995.94;4158633;28;20092;-75
2023/03/15 02:43:05;;;;;;;9.45;1.70;;;;;;;-0.36;100.00;98004.56;4158809;28;20107;-75
2023/03/15 02:45:06;;;;;;;4.75;1.30;;;;;;;-0.40;100.00;98001.72;4158599;28;20041;-75
2023/03/15 02:47:15;;;;;;;5.88;1.60;;;;;;;-0.43;100.00;98001.53;4158364;28;20052;-75
2023/03/15 02:49:17;;;;;;;4.90;1.25;;;;;;;-0.43;100.00;98012.41;4158960;28;20041;-74
2023/03/15 02:51:21;;;;;;;9.50;2.05;;;;;;;-0.42;100.00;98011.28;4158765;28;20072;-74
2023/03/15 02:53:22;;;;;;;4.25;1.27;;;;;;;-0.50;100.00;98012.06;4158381;28;20409;-74
2023/03/15 02:55:22;;;;;;;4.63;1.73;;;;;;;-0.59;100.00;98004.69;4158549;28;20064;-75
2023/03/15 02:57:22;;;;;;;5.32;1.80;;;;;;;-0.62;100.00;98013.50;4158921;28;20054;-74
2023/03/15 02:59:23;;;;;;;4.03;1.40;;;;;;;-0.66;100.00;98009.00;4158775;28;20044;-74
2023/03/15 03:01:23;;;;;;;4.13;1.50;;;;;;;-0.68;100.00;98017.47;4158876;28;20063;-74
2023/03/15 03:03:23;;;;;;;3.83;1.33;;;;;;;-0.68;100.00;98016.66;4158039;28;20041;-74
2023/03/15 03:05:24;;;;;;;6.25;1.48;;;;;;;-0.75;100.00;98019.84;4158532;28;20045;-74
2023/03/15 03:07:24;;;;;;;6.25;1.55;;;;;;;-0.75;100.00;98027.97;4158653;28;20038;-74
2023/03/15 03:09:25;;;;;;;3.40;1.17;;;;;;;-0.73;100.00;98028.50;4158552;28;20552;-74
2023/03/15 03:11:25;;;;;;;7.18;1.42;;;;;;;-0.71;100.00;98030.88;4158543;28;20480;-74
2023/03/15 03:13:25;;;;;;;2.95;1.05;;;;;;;-0.71;100.00;98020.81;4157610;28;20817;-74
2023/03/15 03:15:26;;;;;;;5.60;1.85;;;;;;;-0.66;100.00;98026.13;4158746;28;20128;-74
2023/03/15 03:17:26;;;;;;;5.70;1.30;;;;;;;-0.66;100.00;98015.25;4158367;28;20088;-74
2023/03/15 03:19:26;;;;;;;6.35;1.45;;;;;;;-0.61;100.00;98028.66;4158317;28;20053;-74
2023/03/15 03:21:27;;;;;;;8.30;2.45;;;;;;;-0.63;100.00;98030.09;4158699;28;20205;-74
2023/03/15 03:23:27;;;;;;;3.55;1.67;;;;;;;-0.62;100.00;98034.44;4157443;28;20069;-74
2023/03/15 03:25:27;;;;;;;3.38;1.50;;;;;;;-0.63;100.00;98025.47;4158369;28;20359;-74
2023/03/15 03:27:28;;;;;;;8.13;1.38;;;;;;;-0.60;100.00;98024.84;4158072;28;20534;-74
2023/03/15 03:29:29;;;;;;;5.80;1.50;;;;;;;-0.61;100.00;98023.25;4158310;28;20052;-74
2023/03/15 03:31:32;;;;;;;6.13;1.30;;;;;;;-0.65;100.00;98033.16;4158086;28;20390;-74
2023/03/15 03:33:32;;;;;;;6.55;1.83;;;;;;;-0.63;100.00;98047.22;4156876;28;20428;-74
2023/03/15 03:35:33;;;;;;;12.82;1.80;;;;;;;-0.66;100.00;98044.34;4158269;28;20049;-73
2023/03/15 03:37:34;;;;;;;7.10;1.80;;;;;;;-0.58;100.00;98044.38;4158440;28;20045;-73
2023/03/15 03:39:34;;;;;;;5.65;1.50;;;;;;;-0.55;100.00;98048.34;4157794;28;20041;-74
2023/03/15 03:41:35;;;;;;;5.75;1.40;;;;;;;-0.53;100.00;98050.75;4158104;28;20462;-73
2023/03/15 03:43:36;;;;;;;5.72;2.22;;;;;;;-0.50;100.00;98058.25;4157914;28;20057;-74
2023/03/15 03:45:36;;;;;;;5.25;1.48;;;;;;;-0.46;100.00;98046.47;4157671;28;20419;-73
2023/03/15 03:47:36;;;;;;;11.00;1.92;;;;;;;-0.42;100.00;98052.03;4158014;28;20137;-73
2023/03/15 03:49:37;;;;;;;4.47;1.73;;;;;;;-0.35;100.00;98058.63;4158271;28;20045;-73
2023/03/15 03:51:37;;;;;;;5.78;1.58;;;;;;;-0.29;100.00;98064.72;4157607;28;20144;-74
2023/03/15 03:53:37;;;;;;;3.35;1.38;;;;;;;-0.29;100.00;98070.16;4157129;28;20038;-73
2023/03/15 03:55:38;;;;;;;2.30;1.42;;;;;;;-0.28;100.00;98069.03;4157744;28;20065;-74
2023/03/15 03:57:42;;;;;;;4.38;1.50;;;;;;;-0.27;100.00;98076.06;4157890;28;20132;-74
2023/03/15 03:59:42;;;;;;;4.50;1.40;;;;;;;-0.12;100.00;98093.88;4157730;28;20074;-73
2023/03/15 04:01:43;;;;;;;6.63;2.35;;;;;;;-0.16;100.00;98082.84;4156439;28;20077;-73
2023/03/15 04:03:43;;;;;;;7.13;1.55;;;;;;;-0.14;99.86;98079.78;4157227;28;20052;-73
2023/03/15 04:05:44;;;;;;;6.30;1.42;;;;;;;-0.17;100.00;98081.19;4157710;28;20505;-74
2023/03/15 04:07:44;;;;;;;8.32;1.70;;;;;;;-0.22;100.00;98084.09;4157120;28;20049;-73
2023/03/15 04:09:44;;;;;;;7.68;1.45;;;;;;;-0.25;100.00;98086.63;4157550;28;20037;-73
2023/03/15 04:11:45;;;;;;;5.38;1.50;;;;;;;-0.30;100.00;98077.50;4157984;28;20172;-73
2023/03/15 04:13:45;;;;;;;4.82;1.55;;;;;;;-0.23;100.00;98096.09;4156669;28;20531;-73
2023/03/15 04:15:46;;;;;;;7.03;1.92;;;;;;;-0.23;100.00;98098.81;4157354;28;20164;-73
2023/03/15 04:17:48;;;;;;;5.93;1.65;;;;;;;-0.23;100.00;98098.00;4157765;28;20096;-73
2023/03/15 04:19:48;;;;;;;6.68;2.00;;;;;;;-0.28;100.00;98101.66;4157782;28;20077;-73
2023/03/15 04:21:51;;;;;;;3.97;1.50;;;;;;;-0.26;100.00;98090.47;4157034;28;20076;-73
2023/03/15 04:23:51;;;;;;;;;;;;;;;-0.28;100.00;98097.03;4157446;28;20124;-73
2023/03/15 04:25:54;;;;;;;5.85;1.50;;;;;;;-0.33;100.00;98086.31;4157973;28;19981;-73
2023/03/15 04:28:01;;;;;;;4.45;1.45;;;;;;;-0.31;100.00;98094.16;4157244;28;20084;-73
2023/03/15 04:30:04;;;;;;;4.47;1.63;;;;;;;-0.31;100.00;98103.09;4157260;28;20048;-73
2023/03/15 04:32:04;;;;;;;;;;;;;;;-0.28;100.00;98097.03;4158015;28;20030;-73
2023/03/15 04:34:04;;;;;;;3.28;1.40;;;;;;;-0.30;100.00;98104.69;4157178;28;19951;-73
2023/03/15 04:36:05;;;;;;;5.65;1.65;;;;;;;-0.28;100.00;98096.22;4157687;28;20087;-73
2023/03/15 04:38:05;;;;;;;11.27;1.88;;;;;;;-0.30;100.00;98110.13;4157191;28;20454;-73
2023/03/15 04:40:06;;;;;;;2.80;1.35;;;;;;;-0.32;100.00;98119.72;4157940;28;20033;-73
2023/03/15 04:42:07;;;;;;;6.63;1.60;;;;;;;-0.28;100.00;98112.53;4157997;28;20048;-73
2023/03/15 04:44:07;;;;;;;5.20;1.63;;;;;;;-0.28;100.00;98115.25;4156268;28;20045;-73
2023/03/15 04:46:08;;;;;;;7.03;2.00;;;;;;;-0.30;100.00;98120.22;4156686;28;20034;-73
2023/03/15 04:48:09;;;;;;;5.45;1.48;;;;;;;-0.25;100.00;98119.25;4157156;28;20401;-73
2023/03/15 04:50:10;;;;;;;6.97;1.52;;;;;;;-0.25;100.00;98122.78;4157728;28;20017;-73
2023/03/15 04:52:10;;;;;;;3.97;1.50;;;;;;;-0.16;100.00;98122.81;4156514;28;20021;-73
2023/03/15 04:54:11;;;;;;;3.80;1.52;;;;;;;-0.15;100.00;98127.94;4156741;28;20527;-73
2023/03/15 04:56:11;;;;;;;9.82;1.80;;;;;;;-0.15;100.00;98130.66;4157695;28;20041;-73
2023/03/15 04:58:11;;;;;;;6.45;1.30;;;;;;;-0.21;100.00;98126.47;4157161;28;20037;-73
2023/03/15 05:00:13;;;;;;;4.82;1.60;;;;;;;-0.23;100.00;98131.44;4157814;28;20099;-73
2023/03/15 05:02:13;;;;;;;8.68;1.67;;;;;;;-0.26;100.00;98131.25;4157334;28;20449;-73
2023/03/15 05:04:13;;;;;;;3.60;1.50;;;;;;;-0.29;100.00;98132.69;4156720;28;20069;-73
2023/03/15 05:06:14;;;;;;;5.50;2.00;;;;;;;-0.32;100.00;98128.69;4157097;28;20033;-73
2023/03/15 05:08:14;;;;;;;7.25;2.03;;;;;;;-0.32;100.00;98133.31;4157005;28;20033;-73
2023/03/15 05:10:15;;;;;;;4.85;1.75;;;;;;;-0.34;100.00;98132.81;4158784;28;20056;-73
2023/03/15 05:12:15;;;;;;;3.28;1.83;;;;;;;-0.33;100.00;98127.09;4160278;28;20033;-73
2023/03/15 05:14:16;;;;;;;6.53;1.80;;;;;;;-0.35;100.00;98140.19;4159477;28;20028;-73
2023/03/15 05:16:16;;;;;;;3.03;1.52;;;;;;;-0.30;100.00;98144.69;4160583;28;20272;-73
2023/03/15 05:18:17;;;;;;;4.65;1.80;;;;;;;-0.29;100.00;98130.78;4160372;28;20233;-73
2023/03/15 05:20:17;;;;;;;4.57;1.95;;;;;;;-0.28;100.00;98137.81;4160036;28;20546;-74
2023/03/15 05:22:18;;;;;;;3.63;1.70;;;;;;;-0.29;100.00;98138.94;4160111;28;20033;-73
2023/03/15 05:24:18;;;;;;;5.88;1.40;;;;;;;-0.29;100.00;98140.84;4159671;28;20522;-73
2023/03/15 05:26:18;;;;;;;3.75;1.65;;;;;;;-0.32;100.00;98153.16;4160382;28;20065;-73
2023/03/15 05:28:20;;;;;;;14.38;2.45;;;;;;;-0.28;100.00;98154.13;4160106;28;20167;-73
2023/03/15 05:30:20;;;;;;;3.20;2.00;;;;;;;-0.28;100.00;98145.97;4160491;28;20033;-73
2023/03/15 05:32:25;;;;;;;5.57;1.70;;;;;;;-0.24;100.00;98159.75;4160014;28;20053;-73
2023/03/15 05:34:25;;;;;;;5.07;1.90;;;;;;;-0.20;100.00;98166.13;4159048;28;20049;-73
2023/03/15 05:36:26;;;;;;;8.88;2.35;;;;;;;-0.20;100.00;98168.06;4159990;28;20418;-73
2023/03/15 05:38:26;;;;;;;8.43;2.38;;;;;;;-0.11;100.00;98175.13;4160072;28;20077;-73
2023/03/15 05:40:29;;;;;;;8.90;1.90;;;;;;;-0.07;100.00;98173.38;4159889;28;20130;-73
2023/03/15 05:42:29;;;;;;;7.00;2.05;;;;;;;0.01;100.00;98179.16;4159736;28;20033;-73
2023/03/15 05:44:29;;;;;;;7.18;2.40;;;;;;;0.06;100.00;98184.44;4159596;28;20507;-73
2023/03/15 05:46:30;;;;;;;6.55;2.25;;;;;;;0.06;100.00;98185.25;4159842;28;20045;-73
2023/03/15 05:48:31;;;;;;;7.35;2.20;;;;;;;0.04;100.00;98184.78;4157649;28;20321;-73
2023/03/15 05:50:31;;;;;;;6.80;1.92;;;;;;;0.03;100.00;98198.69;4158831;28;20552;-73
2023/03/15 05:52:32;;;;;;;7.07;2.00;;;;;;;-0.04;100.00;98194.50;4159301;28;20061;-73
2023/03/15 05:54:32;;;;;;;4.40;1.75;;;;;;;-0.04;100.00;98201.88;4159548;28;20470;-73
2023/03/15 05:56:32;;;;;;;10.13;2.35;;;;;;;-0.01;100.00;98196.59;4159619;28;20179;-73
2023/03/15 05:58:33;;;;;;;4.65;2.15;;;;;;;0.03;100.00;98195.97;4128037;28;20156;-73
2023/03/15 06:00:33;;;;;;;7.75;2.20;;;;;;;0.13;100.00;98201.91;4148376;28;20108;-73
2023/03/15 06:02:33;;;;;;;8.10;1.90;;;;;;;0.07;100.00;98210.53;4158965;28;20068;-73
2023/03/15 06:04:35;;;;;;;4.75;2.08;;;;;;;0.11;100.00;98217.75;4159836;28;20060;-73
2023/03/15 06:06:35;;;;;;;8.70;2.50;;;;;;;0.05;100.00;98216.28;4158625;28;20040;-74
2023/03/15 06:08:38;;;;;;;9.05;2.33;;;;;;;0.04;100.00;98211.97;4159374;28;20045;-74
2023/03/15 06:10:38;;;;;;;;;;;;;;;0.06;100.00;98214.38;4160347;28;20091;-74
2023/03/15 06:12:38;;;;;;;10.82;2.58;;;;;;;0.06;100.00;98225.25;4159090;28;20308;-74
2023/03/15 06:14:39;;;;;;;10.30;2.58;;;;;;;0.12;100.00;98215.84;4159446;28;20087;-74
2023/03/15 06:16:39;;;;;;;11.45;2.92;;;;;;;0.12;100.00;98218.56;4160055;28;20445;-74
2023/03/15 06:18:39;;;;;;;8.25;2.40;;;;;;;0.17;100.00;98229.31;4158842;28;20041;-74
2023/03/15 06:20:40;;;;;;;8.57;2.20;;;;;;;0.14;100.00;98219.84;4159579;28;20382;-74
2023/03/15 06:22:40;;;;;;;6.85;2.30;;;;;;;0.14;100.00;98230.72;4158850;28;20049;-74
2023/03/15 06:24:40;;;;;;;7.30;2.38;;;;;;;0.18;100.00;98228.19;4158961;28;20470;-74
2023/03/15 06:26:41;;;;;;;5.82;1.95;;;;;;;0.15;100.00;98234.25;4159862;28;20069;-74
2023/03/15 06:28:41;;;;;;;6.82;2.38;;;;;;;0.19;100.00;98243.38;4159676;28;20050;-74
2023/03/15 06:30:42;;;;;;;8.88;2.60;;;;;;;0.19;100.00;98246.09;4159262;28;20040;-74
2023/03/15 06:32:42;;;;;;;6.75;2.33;;;;;;;0.17;100.00;98242.91;4158206;28;20312;-74
2023/03/15 06:34:42;;;;;;;10.90;2.33;;;;;;;0.20;100.00;98255.88;4157744;28;20228;-74
2023/03/15 06:36:44;;;;;;;3.28;1.67;;;;;;;0.18;100.00;98252.66;4159177;28;20071;-74
2023/03/15 06:38:44;;;;;;;9.88;2.15;;;;;;;0.15;100.00;98253.28;4159165;28;20297;-74
2023/03/15 06:40:44;;;;;;;4.40;2.53;;;;;;;0.17;100.00;98259.22;4158007;28;20025;-74
2023/03/15 06:42:45;;;;;;;6.53;2.42;;;;;;;0.14;100.00;98255.19;4157503;28;20079;-74
2023/03/15 06:44:45;;;;;;;4.43;2.13;;;;;;;0.15;100.00;98267.69;4157922;28;20362;-74
2023/03/15 06:46:45;;;;;;;6.80;2.78;;;;;;;0.14;100.00;98265.28;4158436;28;20084;-74
2023/03/15 06:48:46;;;;;;;3.75;1.88;;;;;;;0.15;100.00;98264.97;4158363;28;20054;-74
2023/03/15 06:50:46;;;;;;;7.75;2.38;;;;;;;0.17;100.00;98270.13;4158093;28;20371;-74
2023/03/15 06:52:46;;;;;;;5.97;2.78;;;;;;;0.21;100.00;98262.91;4157679;28;20044;-75
2023/03/15 06:54:47;;;;;;;4.07;2.20;;;;;;;0.27;100.00;98264.38;4158612;28;20041;-75
2023/03/15 06:56:47;;;;;;;4.72;2.10;;;;;;;0.26;100.00;98277.19;4158845;28;20152;-74
2023/03/15 06:58:47;;;;;;;5.50;2.35;;;;;;;0.26;100.00;98270.94;4159033;28;20077;-74
2023/03/15 07:00:48;;;;;;;3.30;1.80;;;;;;;0.29;100.00;98281.19;4158588;28;20486;-74
2023/03/15 07:02:49;;;;;;;2.65;1.48;;;;;;;0.34;100.00;98275.63;4157628;28;20037;-74
2023/03/15 07:04:49;;;;;;;2.88;1.50;;;;;;;0.41;100.00;98278.66;4158769;28;20060;-74
2023/03/15 07:06:49;;;;;;;4.68;1.60;;;;;;;0.46;100.00;98283.97;4158707;28;20047;-74
2023/03/15 07:08:50;;;;;;;3.00;1.35;;;;;;;0.49;100.00;98285.22;4158512;28;20141;-74
2023/03/15 07:10:51;;;;;;;1.90;1.40;;;;;;;0.54;100.00;98282.38;4158498;28;20037;-74
2023/03/15 07:12:51;;;;;;;2.17;1.42;;;;;;;0.56;100.00;98280.13;4158065;28;20303;-74
2023/03/15 07:14:51;;;;;;;3.53;1.30;;;;;;;0.57;100.00;98289.91;4158500;28;20041;-75
2023/03/15 07:16:51;;;;;;;2.33;1.23;;;;;;;0.63;100.00;98285.13;4159232;28;20060;-75
2023/03/15 07:18:54;;;;;;;1.40;1.27;;;;;;;0.62;100.00;98278.06;4158844;28;20043;-75
2023/03/15 07:20:59;;;;;;;2.47;1.33;;;;;;;0.65;100.00;98280.16;4158728;28;20049;-75
2023/03/15 07:22:59;;;;;;;2.88;1.58;;;;;;;0.65;100.00;98293.75;4157269;28;20049;-75
2023/03/15 07:24:59;;;;;;;3.22;1.40;;;;;;;0.65;100.00;98288.31;4158179;28;20033;-75
2023/03/15 07:27:00;;;;;;;1.95;1.48;;;;;;;0.69;100.00;98287.38;4158753;28;20049;-75
2023/03/15 07:29:00;;;;;;;1.85;1.35;;;;;;;0.76;100.00;98303.25;4158133;28;20033;-74
2023/03/15 07:31:03;;;;;;;2.78;1.33;;;;;;;0.80;100.00;98305.00;4158485;28;20042;-74
2023/03/15 07:33:03;;;;;;;3.90;1.15;;;;;;;0.82;100.00;98297.31;4156773;28;20204;-75
2023/03/15 07:35:03;;;;;;;2.45;1.15;;;;;;;0.86;100.00;98308.38;4158527;28;20146;-74
2023/03/15 07:37:04;;;;;;;1.63;1.20;;;;;;;0.87;100.00;98306.47;4158510;28;20115;-75
2023/03/15 07:39:04;;;;;;;2.78;1.58;;;;;;;0.85;100.00;98312.22;4158179;28;20461;-74
2023/03/15 07:41:05;;;;;;;1.90;1.23;;;;;;;0.91;100.00;98315.59;4158682;28;20038;-74
2023/03/15 07:43:05;;;;;;;2.08;1.38;;;;;;;0.90;100.00;98314.00;4157425;28;20107;-75
2023/03/15 07:45:07;;;;;;;2.47;1.40;;;;;;;0.89;100.00;98317.84;4157598;28;20103;-75
2023/03/15 07:47:07;;;;;;;2.35;1.45;;;;;;;0.82;100.00;98323.75;4157960;28;20033;-74
2023/03/15 07:49:08;;;;;;;1.60;0.93;;;;;;;0.86;100.00;98329.38;4158352;28;20841;-75
2023/03/15 07:51:08;;;;;;;2.10;1.20;;;;;;;0.83;100.00;98326.19;4158054;28;20050;-74
2023/03/15 07:53:08;;;;;;;1.67;1.10;;;;;;;0.84;100.00;98316.09;4157518;28;20073;-74
2023/03/15 07:55:09;;;;;;;2.05;1.15;;;;;;;0.87;100.00;98320.88;4158140;28;20164;-74
2023/03/15 07:57:10;;;;;;;1.48;1.13;;;;;;;0.89;100.00;98324.09;4158164;28;20355;-75
2023/03/15 07:59:10;;;;;;;1.70;1.15;;;;;;;0.93;100.00;98332.44;4157905;28;20042;-75
2023/03/15 08:01:11;;;;;;;1.23;1.00;;;;;;;0.96;100.00;98329.88;4157588;28;20053;-75
2023/03/15 08:03:11;;;;;;;1.10;1.00;;;;;;;0.99;100.00;98331.94;4157474;28;20422;-75
2023/03/15 08:05:11;;;;;;;1.48;1.10;;;;;;;1.00;100.00;98339.03;4157670;28;20042;-75
2023/03/15 08:07:12;;;;;;;1.10;1.00;;;;;;;1.05;100.00;98338.84;4172717;28;20052;-75
2023/03/15 08:09:12;;;;;;;1.70;1.10;;;;;;;1.09;100.00;98337.09;4157448;28;20033;-75
2023/03/15 08:11:12;;;;;;;1.90;1.25;;;;;;;1.12;100.00;98344.63;4157814;28;20516;-75
2023/03/15 08:13:13;;;;;;;1.70;1.48;;;;;;;1.18;100.00;98344.50;4157380;28;20519;-75
2023/03/15 08:15:14;;;;;;;2.35;1.60;;;;;;;1.17;100.00;98340.97;4158019;28;20046;-75
2023/03/15 08:17:15;;;;;;;3.47;1.55;;;;;;;1.19;100.00;98344.16;4157555;28;20038;-74
2023/03/15 08:19:15;;;;;;;1.60;1.35;;;;;;;1.17;100.00;98343.69;4156568;28;20053;-74
2023/03/15 08:21:16;;;;;;;2.33;1.50;;;;;;;1.21;100.00;98347.38;4157537;28;20045;-75
2023/03/15 08:23:16;;;;;;;3.00;1.60;;;;;;;1.19;100.00;98344.16;4157228;28;20129;-74
2023/03/15 08:25:19;;;;;;;2.67;1.80;;;;;;;1.26;100.00;98346.41;4157715;28;20061;-75
2023/03/15 08:27:19;;;;;;;4.22;2.08;;;;;;;1.30;100.00;98352.81;4157708;28;20382;-75
2023/03/15 08:29:20;;;;;;;4.18;2.10;;;;;;;1.34;100.00;98351.06;4157792;28;20071;-74
2023/03/15 08:31:20;;;;;;;3.03;2.10;;;;;;;1.39;100.00;98354.41;4157584;28;20042;-74
2023/03/15 08:33:21;;;;;;;12.05;3.10;;;;;;;1.48;100.00;98353.63;4156944;28;20141;-75
2023/03/15 08:35:21;;;;;;;2.53;1.90;;;;;;;1.55;100.00;98360.19;4158177;28;20434;-75
2023/03/15 08:37:22;;;;;;;5.75;3.17;;;;;;;1.62;100.00;98371.41;4157675;28;20459;-75
2023/03/15 08:39:22;;;;;;;16.25;2.80;;;;;;;1.72;100.00;98370.28;4157516;28;20449;-75
2023/03/15 08:41:23;;;;;;;2.75;1.95;;;;;;;1.81;100.00;98373.81;4157305;28;20042;-75
2023/03/15 08:43:23;;;;;;;5.88;2.90;;;;;;;1.94;100.00;98382.94;4156643;28;20068;-74
2023/03/15 08:45:25;;;;;;;3.63;2.40;;;;;;;2.11;100.00;98373.94;4158904;28;20053;-75
2023/03/15 08:47:25;;;;;;;15.32;3.38;;;;;;;2.21;100.00;98379.84;4160752;28;20034;-75
2023/03/15 08:49:25;;;;;;;4.40;2.00;;;;;;;2.25;100.00;98377.28;4160910;28;20057;-75
2023/03/15 08:51:26;;;;;;;19.25;3.08;;;;;;;2.34;100.00;98383.50;4160999;28;20133;-75
2023/03/15 08:53:26;;;;;;;8.60;2.33;;;;;;;2.45;100.00;98382.00;4159992;28;20053;-74
2023/03/15 08:55:26;;;;;;;4.10;1.50;;;;;;;2.57;100.00;98375.06;4160679;28;20045;-74
2023/03/15 08:57:28;;;;;;;2.88;2.20;;;;;;;2.69;100.00;98375.97;4160558;28;20045;-75
2023/03/15 08:59:28;;;;;;;2.88;1.98;;;;;;;2.77;100.00;98372.41;4160334;28;20038;-75
2023/03/15 09:01:29;;;;;;;2.10;1.52;;;;;;;2.88;100.00;98370.09;4160861;28;20052;-75
2023/03/15 09:03:31;;;;;;;2.70;2.20;;;;;;;2.98;100.00;98371.63;4160191;28;20897;-75
2023/03/15 09:05:32;;;;;;;2.17;1.92;;;;;;;2.97;100.00;98361.84;4160331;28;20041;-75
2023/03/15 09:07:33;;;;;;;2.35;1.60;;;;;;;3.03;100.00;98374.19;4160829;28;20474;-75
2023/03/15 09:09:33;;;;;;;5.25;1.70;;;;;;;3.07;100.00;98378.66;4160302;28;20037;-75
2023/03/15 09:11:33;;;;;;;2.10;1.90;;;;;;;3.15;100.00;98379.75;4160684;28;20050;-75
2023/03/15 09:13:34;;;;;;;2.67;1.52;;;;;;;3.03;99.99;98383.19;4159130;28;20041;-74
2023/03/15 09:15:34;;;;;;;5.72;2.08;;;;;;;3.01;100.00;98379.19;4192284;28;20047;-75
2023/03/15 09:17:34;;;;;;;2.22;1.80;;;;;;;3.06;100.00;98387.19;4160895;28;20090;-75
2023/03/15 09:19:35;;;;;;;2.35;1.85;;;;;;;3.05;100.00;98391.84;4160155;28;20392;-75
2023/03/15 09:21:35;;;;;;;2.72;1.88;;;;;;;3.00;100.00;98389.31;4160245;28;20045;-75
2023/03/15 09:23:36;;;;;;;7.32;2.10;;;;;;;3.03;100.00;98398.78;4160086;28;20041;-75
2023/03/15 09:25:36;;;;;;;3.80;2.20;;;;;;;2.98;100.00;98390.75;4160149;28;20052;-74
2023/03/15 09:27:37;;;;;;;2.47;2.10;;;;;;;2.97;99.42;98391.91;4159968;28;20080;-74
2023/03/15 09:29:37;;;;;;;2.35;1.98;;;;;;;3.10;100.00;98402.59;4160218;28;20031;-75
2023/03/15 09:31:37;;;;;;;2.28;2.08;;;;;;;3.16;99.41;98408.69;4160376;28;20045;-75